Flight Track Log - Related Links

Times and Time Zones

All times are in EDT time to prevent confusion due to time zone crossing. See the WBR2633 flight status page for this flight to view local times or setup timezone preferences in your user account.

Time Position Orientation Groundspeed Altitude Reporting Facility
EDT Latitude Longitude Course Direction KTS MPH feet Rate Location/Type
Fri 11:25:36 AM 40.7608 -91.1656 163° South 148 170 2,700  Level Chicago Center
Fri 11:26:38 AM 40.7247 -91.1478 160° South 137 158 3,400 774 Climbing Chicago Center
Fri 11:27:40 AM 40.6764 -91.1278 163° South 146 168 4,300 823 Climbing Chicago Center
Fri 11:28:00 AM 40.5113 -91.0218 163° South  Level Estimated
Fri 11:28:42 AM 40.6372 -91.1150 166° South 148 170 5,100  Level Chicago Center
Fri 11:29:00 AM 40.4662 -91.0034 163° South  Level FlightAware Approximate
Fri 11:29:45 AM 40.5944 -91.0967 162° South 151 174 5,100  Level Chicago Center
Fri 11:30:00 AM 40.4208 -90.9863 163° South  Level Estimated
Fri 11:30:47 AM 40.5500 -91.0764 161° South 158 182 5,100  Level Chicago Center
Fri 11:31:49 AM 40.5050 -91.0581 163° South 167 192 5,000 -48 Descending Chicago Center
Fri 11:32:51 AM 40.4481 -91.0369 164° South 173 199 5,000  Level Chicago Center
Fri 11:33:53 AM 40.4008 -91.0175 163° South 177 204 5,000  Level Chicago Center
Fri 11:34:49 AM 40.3683 -91.0039 162° South 166 191 5,000  Level Kansas City Center
Fri 11:35:51 AM 40.3167 -90.9825 162° South 163 188 5,000  Level Kansas City Center
Fri 11:36:53 AM 40.2753 -90.9669 164° South 162 186 5,000  Level Kansas City Center
Fri 11:37:55 AM 40.2328 -90.9478 161° South 159 183 5,000  Level Kansas City Center
Fri 11:38:57 AM 40.1908 -90.9314 163° South 158 182 5,000  Level Kansas City Center
Fri 11:39:59 AM 40.1497 -90.9167 165° South 154 177 5,000  Level Kansas City Center
Fri 11:41:01 AM 40.1081 -90.8989 162° South 157 181 5,000  Level Kansas City Center
Fri 11:42:03 AM 40.0586 -90.8800 164° South 156 180 5,000  Level Kansas City Center
Fri 11:43:05 AM 40.0175 -90.8625 162° South 156 180 5,000  Level Kansas City Center
Fri 11:44:07 AM 39.9753 -90.8456 163° South 156 180 5,000  Level Kansas City Center
Fri 11:45:10 AM 39.9331 -90.8306 165° South 157 181 5,000  Level Kansas City Center
Fri 11:46:12 AM 39.8925 -90.8150 164° South 155 178 5,000  Level Kansas City Center
Fri 11:47:14 AM 39.8503 -90.7964 161° South 157 181 5,000  Level Kansas City Center
Fri 11:48:16 AM 39.8011 -90.7772 163° South 156 180 5,000  Level Kansas City Center
Fri 11:49:18 AM 39.7583 -90.7619 165° South 157 181 5,000 48 Level Kansas City Center
Fri 11:50:20 AM 39.7144 -90.7433 162° South 157 181 5,100 48 Climbing Kansas City Center
Fri 11:51:22 AM 39.6728 -90.7275 164° South 156 180 5,100 -48 Level Kansas City Center
Fri 11:52:24 AM 39.6328 -90.7119 163° South 151 174 5,000 -48 Descending Kansas City Center
Fri 11:53:26 AM 39.5925 -90.6972 164° South 151 174 5,000 48 Level Kansas City Center
Fri 11:54:28 AM 39.5531 -90.6811 163° South 150 173 5,100 48 Climbing Kansas City Center
Fri 11:55:30 AM 39.5119 -90.6633 162° South 153 176 5,100  Level Kansas City Center
Fri 11:56:32 AM 39.4631 -90.6453 164° South 154 177 5,100  Level Kansas City Center
Fri 11:57:34 AM 39.4239 -90.6283 162° South 150 173 5,100  Level Kansas City Center
Fri 11:58:36 AM 39.3839 -90.6136 164° South 149 171 5,100  Level Kansas City Center
Fri 11:59:38 AM 39.3439 -90.5958 161° South 152 175 5,100  Level Kansas City Center
Fri 12:00:40 PM 39.3039 -90.5814 164° South 151 174 5,100 -97 Level Kansas City Center
Fri 12:01:42 PM 39.2647 -90.5617 159° South 151 174 4,900 -339 Descending Kansas City Center
Fri 12:02:44 PM 39.2175 -90.5272 151° Southeast 156 180 4,400 -387 Descending Kansas City Center
Fri 12:03:46 PM 39.1747 -90.4989 153° Southeast 165 190 4,100 -194 Descending Kansas City Center
Fri 12:04:48 PM 39.1361 -90.4694 149° Southeast 165 190 4,000 -48 Descending Kansas City Center
Fri 12:05:50 PM 39.1000 -90.4419 149° Southeast 159 183 4,000 48 Level Kansas City Center
Fri 12:06:52 PM 39.0636 -90.4172 152° Southeast 152 175 4,100 48 Climbing Kansas City Center
Fri 12:07:54 PM 39.0261 -90.3914 152° Southeast 151 174 4,100  Level Kansas City Center
Fri 12:08:56 PM 38.9819 -90.3592 150° Southeast 152 175 4,100  Level Kansas City Center
Fri 12:09:58 PM 38.9447 -90.3342 152° Southeast 152 175 4,100  Level Kansas City Center
Fri 12:11:00 PM 38.9058 -90.3094 154° Southeast 153 176 4,100  Level Kansas City Center
Fri 12:12:02 PM 38.8675 -90.2822 151° Southeast 155 178 4,100  Level Kansas City Center
Fri 12:13:04 PM 38.8294 -90.2553 151° Southeast 155 178 4,100  Level Kansas City Center
Fri 12:14:06 PM 38.7914 -90.2289 152° Southeast 155 178 4,100  Level Kansas City Center
Fri 12:15:08 PM 38.7531 -90.2025 152° Southeast 155 178 4,100  Level Kansas City Center
Fri 12:16:10 PM 38.7156 -90.1592 138° Southeast 157 181 4,100  Level Kansas City Center
Fri 12:17:13 PM 38.6750 -90.1594 180° South 150 173 4,100 -288 Level Kansas City Center
Fri 12:18:15 PM 38.6683 -90.1958 257° West 129 148 3,500 -629 Descending Kansas City Center
Fri 12:19:17 PM 38.6867 -90.2319 303° West 123 142 2,800 -677 Descending Kansas City Center
Fri 12:20:19 PM 38.7039 -90.2692 301° West 123 142 2,100 -677 Descending Kansas City Center
Fri 12:21:21 PM 38.7222 -90.3061 302° West 123 142 1,400 -677 Descending Kansas City Center
Fri 12:22:23 PM 38.7419 -90.3467 302° West 119 137 700 -677 Descending Kansas City Center

Login

Don't have an account? Register now (free) for customized features, flight alerts, and more!